sensor_id;sensor_type;location;lat;lon;timestamp;P1;durP1;ratioP1;P2;durP2;ratioP2
13985;SDS011;7067;51.832;8.296;2024-03-08T00:01:55;26.30;;;20.73;;
13985;SDS011;7067;51.832;8.296;2024-03-08T00:04:20;25.87;;;21.13;;
13985;SDS011;7067;51.832;8.296;2024-03-08T00:06:45;25.20;;;20.87;;
13985;SDS011;7067;51.832;8.296;2024-03-08T00:09:11;24.33;;;20.53;;
13985;SDS011;7067;51.832;8.296;2024-03-08T00:11:37;27.60;;;21.30;;
13985;SDS011;7067;51.832;8.296;2024-03-08T00:14:02;27.60;;;20.30;;
13985;SDS011;7067;51.832;8.296;2024-03-08T00:16:31;26.07;;;20.67;;
13985;SDS011;7067;51.832;8.296;2024-03-08T00:18:57;25.90;;;20.40;;
13985;SDS011;7067;51.832;8.296;2024-03-08T00:21:23;28.43;;;21.90;;
13985;SDS011;7067;51.832;8.296;2024-03-08T00:23:48;31.23;;;21.57;;
13985;SDS011;7067;51.832;8.296;2024-03-08T00:26:13;25.10;;;20.60;;
13985;SDS011;7067;51.832;8.296;2024-03-08T00:28:39;25.87;;;20.93;;
13985;SDS011;7067;51.832;8.296;2024-03-08T00:31:04;26.80;;;20.60;;
13985;SDS011;7067;51.832;8.296;2024-03-08T00:33:32;28.33;;;20.77;;
13985;SDS011;7067;51.832;8.296;2024-03-08T00:35:57;28.67;;;20.70;;
13985;SDS011;7067;51.832;8.296;2024-03-08T00:38:23;30.87;;;22.17;;
13985;SDS011;7067;51.832;8.296;2024-03-08T00:40:48;27.30;;;20.73;;
13985;SDS011;7067;51.832;8.296;2024-03-08T00:43:13;29.87;;;21.60;;
13985;SDS011;7067;51.832;8.296;2024-03-08T00:45:40;31.20;;;21.93;;
13985;SDS011;7067;51.832;8.296;2024-03-08T00:48:07;28.63;;;21.27;;
13985;SDS011;7067;51.832;8.296;2024-03-08T00:50:33;31.17;;;21.23;;
13985;SDS011;7067;51.832;8.296;2024-03-08T00:52:58;26.23;;;21.57;;
13985;SDS011;7067;51.832;8.296;2024-03-08T00:55:24;31.07;;;22.57;;
13985;SDS011;7067;51.832;8.296;2024-03-08T00:57:50;28.10;;;20.80;;
13985;SDS011;7067;51.832;8.296;2024-03-08T01:00:15;27.90;;;21.60;;
13985;SDS011;7067;51.832;8.296;2024-03-08T01:02:41;30.53;;;22.97;;
13985;SDS011;7067;51.832;8.296;2024-03-08T01:05:07;30.40;;;22.43;;
13985;SDS011;7067;51.832;8.296;2024-03-08T01:07:35;33.47;;;22.80;;
13985;SDS011;7067;51.832;8.296;2024-03-08T01:10:04;27.03;;;20.53;;
13985;SDS011;7067;51.832;8.296;2024-03-08T01:12:34;28.63;;;22.63;;
13985;SDS011;7067;51.832;8.296;2024-03-08T01:14:59;28.63;;;22.43;;
13985;SDS011;7067;51.832;8.296;2024-03-08T01:17:25;26.80;;;22.47;;
13985;SDS011;7067;51.832;8.296;2024-03-08T01:19:51;28.97;;;21.93;;
13985;SDS011;7067;51.832;8.296;2024-03-08T01:22:16;29.63;;;22.43;;
13985;SDS011;7067;51.832;8.296;2024-03-08T01:24:41;37.87;;;23.50;;
13985;SDS011;7067;51.832;8.296;2024-03-08T01:27:07;27.70;;;22.77;;
13985;SDS011;7067;51.832;8.296;2024-03-08T01:29:34;31.50;;;23.70;;
13985;SDS011;7067;51.832;8.296;2024-03-08T01:31:59;31.07;;;22.97;;
13985;SDS011;7067;51.832;8.296;2024-03-08T01:34:26;30.93;;;23.07;;
13985;SDS011;7067;51.832;8.296;2024-03-08T01:36:53;29.63;;;23.13;;
13985;SDS011;7067;51.832;8.296;2024-03-08T01:39:20;30.20;;;23.27;;
13985;SDS011;7067;51.832;8.296;2024-03-08T01:41:47;31.20;;;23.37;;
13985;SDS011;7067;51.832;8.296;2024-03-08T01:44:12;30.13;;;22.97;;
13985;SDS011;7067;51.832;8.296;2024-03-08T01:46:42;31.83;;;23.58;;
13985;SDS011;7067;51.832;8.296;2024-03-08T01:49:09;32.80;;;24.73;;
13985;SDS011;7067;51.832;8.296;2024-03-08T01:51:35;31.80;;;22.77;;
13985;SDS011;7067;51.832;8.296;2024-03-08T01:54:00;30.13;;;23.27;;
13985;SDS011;7067;51.832;8.296;2024-03-08T01:56:27;30.83;;;24.00;;
13985;SDS011;7067;51.832;8.296;2024-03-08T01:58:54;31.97;;;24.23;;
13985;SDS011;7067;51.832;8.296;2024-03-08T02:01:19;30.73;;;23.73;;
13985;SDS011;7067;51.832;8.296;2024-03-08T02:03:44;30.80;;;24.13;;
13985;SDS011;7067;51.832;8.296;2024-03-08T02:06:11;28.73;;;23.07;;
13985;SDS011;7067;51.832;8.296;2024-03-08T02:08:38;33.10;;;25.60;;
13985;SDS011;7067;51.832;8.296;2024-03-08T02:11:03;37.63;;;25.37;;
13985;SDS011;7067;51.832;8.296;2024-03-08T02:13:29;32.43;;;24.17;;
13985;SDS011;7067;51.832;8.296;2024-03-08T02:18:20;30.77;;;23.70;;
13985;SDS011;7067;51.832;8.296;2024-03-08T02:20:49;34.30;;;25.17;;
13985;SDS011;7067;51.832;8.296;2024-03-08T02:23:16;36.88;;;24.73;;
13985;SDS011;7067;51.832;8.296;2024-03-08T02:25:41;33.57;;;24.53;;
13985;SDS011;7067;51.832;8.296;2024-03-08T02:28:09;32.53;;;25.23;;
13985;SDS011;7067;51.832;8.296;2024-03-08T02:30:35;29.53;;;23.93;;
13985;SDS011;7067;51.832;8.296;2024-03-08T02:33:01;34.20;;;24.33;;
13985;SDS011;7067;51.832;8.296;2024-03-08T02:35:26;33.90;;;23.47;;
13985;SDS011;7067;51.832;8.296;2024-03-08T02:37:51;33.73;;;25.40;;
13985;SDS011;7067;51.832;8.296;2024-03-08T02:40:17;32.17;;;25.73;;
13985;SDS011;7067;51.832;8.296;2024-03-08T02:42:42;31.30;;;25.20;;
13985;SDS011;7067;51.832;8.296;2024-03-08T02:45:08;34.87;;;24.13;;
13985;SDS011;7067;51.832;8.296;2024-03-08T02:47:35;32.70;;;24.57;;
13985;SDS011;7067;51.832;8.296;2024-03-08T02:50:00;32.90;;;24.77;;
13985;SDS011;7067;51.832;8.296;2024-03-08T02:52:26;34.43;;;25.73;;
13985;SDS011;7067;51.832;8.296;2024-03-08T02:54:51;35.53;;;25.33;;
13985;SDS011;7067;51.832;8.296;2024-03-08T02:57:17;32.80;;;26.30;;
13985;SDS011;7067;51.832;8.296;2024-03-08T02:59:43;32.33;;;25.17;;
13985;SDS011;7067;51.832;8.296;2024-03-08T03:02:09;32.87;;;24.83;;
13985;SDS011;7067;51.832;8.296;2024-03-08T03:04:35;34.63;;;25.93;;
13985;SDS011;7067;51.832;8.296;2024-03-08T03:07:00;33.67;;;25.70;;
13985;SDS011;7067;51.832;8.296;2024-03-08T03:09:26;34.07;;;25.53;;
13985;SDS011;7067;51.832;8.296;2024-03-08T03:11:55;36.77;;;25.83;;
13985;SDS011;7067;51.832;8.296;2024-03-08T03:14:21;34.77;;;26.43;;
13985;SDS011;7067;51.832;8.296;2024-03-08T03:16:47;35.77;;;25.60;;
13985;SDS011;7067;51.832;8.296;2024-03-08T03:19:12;35.50;;;25.67;;
13985;SDS011;7067;51.832;8.296;2024-03-08T03:21:37;33.77;;;25.57;;
13985;SDS011;7067;51.832;8.296;2024-03-08T03:24:03;35.27;;;26.40;;
13985;SDS011;7067;51.832;8.296;2024-03-08T03:26:30;34.90;;;26.20;;
13985;SDS011;7067;51.832;8.296;2024-03-08T03:28:56;34.17;;;24.80;;
13985;SDS011;7067;51.832;8.296;2024-03-08T03:31:22;34.37;;;25.40;;
13985;SDS011;7067;51.832;8.296;2024-03-08T03:33:49;32.93;;;25.00;;
13985;SDS011;7067;51.832;8.296;2024-03-08T03:36:16;34.77;;;26.23;;
13985;SDS011;7067;51.832;8.296;2024-03-08T03:38:42;37.43;;;26.43;;
13985;SDS011;7067;51.832;8.296;2024-03-08T03:41:08;35.40;;;25.73;;
13985;SDS011;7067;51.832;8.296;2024-03-08T03:43:37;38.53;;;27.43;;
13985;SDS011;7067;51.832;8.296;2024-03-08T03:46:05;33.97;;;25.10;;
13985;SDS011;7067;51.832;8.296;2024-03-08T03:48:32;39.90;;;26.37;;
13985;SDS011;7067;51.832;8.296;2024-03-08T03:50:57;37.23;;;27.07;;
13985;SDS011;7067;51.832;8.296;2024-03-08T03:53:23;36.20;;;26.40;;
13985;SDS011;7067;51.832;8.296;2024-03-08T03:55:50;38.00;;;27.03;;
13985;SDS011;7067;51.832;8.296;2024-03-08T03:58:16;35.00;;;26.30;;
13985;SDS011;7067;51.832;8.296;2024-03-08T04:00:47;36.47;;;27.80;;
13985;SDS011;7067;51.832;8.296;2024-03-08T04:03:12;35.07;;;26.57;;
13985;SDS011;7067;51.832;8.296;2024-03-08T04:05:38;36.07;;;27.03;;
13985;SDS011;7067;51.832;8.296;2024-03-08T04:08:04;41.77;;;29.43;;
13985;SDS011;7067;51.832;8.296;2024-03-08T04:10:29;37.13;;;26.47;;
13985;SDS011;7067;51.832;8.296;2024-03-08T04:12:55;34.30;;;26.00;;
13985;SDS011;7067;51.832;8.296;2024-03-08T04:15:21;38.40;;;27.60;;
13985;SDS011;7067;51.832;8.296;2024-03-08T04:17:48;41.97;;;29.63;;
13985;SDS011;7067;51.832;8.296;2024-03-08T04:20:13;39.73;;;28.90;;
13985;SDS011;7067;51.832;8.296;2024-03-08T04:22:39;38.97;;;28.47;;
13985;SDS011;7067;51.832;8.296;2024-03-08T04:25:05;38.47;;;28.80;;
13985;SDS011;7067;51.832;8.296;2024-03-08T04:27:31;36.70;;;27.00;;
13985;SDS011;7067;51.832;8.296;2024-03-08T04:29:58;41.67;;;28.97;;
13985;SDS011;7067;51.832;8.296;2024-03-08T04:32:24;40.07;;;29.57;;
13985;SDS011;7067;51.832;8.296;2024-03-08T04:34:49;35.40;;;27.53;;
13985;SDS011;7067;51.832;8.296;2024-03-08T04:37:15;39.00;;;28.83;;
13985;SDS011;7067;51.832;8.296;2024-03-08T04:39:43;38.30;;;27.73;;
13985;SDS011;7067;51.832;8.296;2024-03-08T04:42:08;37.80;;;27.50;;
13985;SDS011;7067;51.832;8.296;2024-03-08T04:44:38;40.53;;;28.60;;
13985;SDS011;7067;51.832;8.296;2024-03-08T04:47:04;41.83;;;29.10;;
13985;SDS011;7067;51.832;8.296;2024-03-08T04:49:31;37.93;;;27.23;;
13985;SDS011;7067;51.832;8.296;2024-03-08T04:52:00;41.47;;;29.53;;
13985;SDS011;7067;51.832;8.296;2024-03-08T04:54:31;45.03;;;29.60;;
13985;SDS011;7067;51.832;8.296;2024-03-08T04:56:56;39.87;;;28.17;;
13985;SDS011;7067;51.832;8.296;2024-03-08T04:59:22;40.10;;;29.50;;
13985;SDS011;7067;51.832;8.296;2024-03-08T05:01:47;41.57;;;28.33;;
13985;SDS011;7067;51.832;8.296;2024-03-08T05:04:13;42.03;;;28.93;;
13985;SDS011;7067;51.832;8.296;2024-03-08T05:06:38;44.90;;;29.23;;
13985;SDS011;7067;51.832;8.296;2024-03-08T05:09:04;38.60;;;29.10;;
13985;SDS011;7067;51.832;8.296;2024-03-08T05:11:39;40.33;;;28.73;;
13985;SDS011;7067;51.832;8.296;2024-03-08T05:14:05;42.20;;;29.23;;
13985;SDS011;7067;51.832;8.296;2024-03-08T05:16:31;38.17;;;27.23;;
13985;SDS011;7067;51.832;8.296;2024-03-08T05:18:56;43.33;;;30.63;;
13985;SDS011;7067;51.832;8.296;2024-03-08T05:21:22;42.60;;;29.30;;
13985;SDS011;7067;51.832;8.296;2024-03-08T05:23:48;41.60;;;29.13;;
13985;SDS011;7067;51.832;8.296;2024-03-08T05:26:15;37.47;;;27.73;;
13985;SDS011;7067;51.832;8.296;2024-03-08T05:28:40;43.63;;;28.50;;
13985;SDS011;7067;51.832;8.296;2024-03-08T05:31:08;43.23;;;29.93;;
13985;SDS011;7067;51.832;8.296;2024-03-08T05:33:43;40.67;;;30.13;;
13985;SDS011;7067;51.832;8.296;2024-03-08T05:36:08;41.90;;;29.80;;
13985;SDS011;7067;51.832;8.296;2024-03-08T05:38:34;39.17;;;27.77;;
13985;SDS011;7067;51.832;8.296;2024-03-08T05:40:59;43.80;;;29.77;;
13985;SDS011;7067;51.832;8.296;2024-03-08T05:43:24;40.03;;;28.70;;
13985;SDS011;7067;51.832;8.296;2024-03-08T05:45:50;43.00;;;30.03;;
13985;SDS011;7067;51.832;8.296;2024-03-08T05:48:15;43.17;;;29.10;;
13985;SDS011;7067;51.832;8.296;2024-03-08T05:50:40;42.47;;;30.30;;
13985;SDS011;7067;51.832;8.296;2024-03-08T05:53:05;42.27;;;29.57;;
13985;SDS011;7067;51.832;8.296;2024-03-08T05:55:32;44.60;;;28.73;;
13985;SDS011;7067;51.832;8.296;2024-03-08T05:58:00;44.13;;;30.47;;
13985;SDS011;7067;51.832;8.296;2024-03-08T06:00:26;43.67;;;28.80;;
13985;SDS011;7067;51.832;8.296;2024-03-08T06:02:52;44.77;;;29.60;;
13985;SDS011;7067;51.832;8.296;2024-03-08T06:05:17;46.63;;;30.33;;
13985;SDS011;7067;51.832;8.296;2024-03-08T06:07:42;45.23;;;29.63;;
13985;SDS011;7067;51.832;8.296;2024-03-08T06:10:08;42.37;;;29.57;;
13985;SDS011;7067;51.832;8.296;2024-03-08T06:12:38;44.05;;;30.27;;
13985;SDS011;7067;51.832;8.296;2024-03-08T06:15:09;43.17;;;29.10;;
13985;SDS011;7067;51.832;8.296;2024-03-08T06:17:35;47.27;;;30.83;;
13985;SDS011;7067;51.832;8.296;2024-03-08T06:20:01;50.97;;;32.07;;
13985;SDS011;7067;51.832;8.296;2024-03-08T06:22:28;50.47;;;32.67;;
13985;SDS011;7067;51.832;8.296;2024-03-08T06:24:55;47.53;;;31.63;;
13985;SDS011;7067;51.832;8.296;2024-03-08T06:27:21;44.47;;;30.40;;
13985;SDS011;7067;51.832;8.296;2024-03-08T06:29:46;45.00;;;30.87;;
13985;SDS011;7067;51.832;8.296;2024-03-08T06:32:14;42.63;;;30.50;;
13985;SDS011;7067;51.832;8.296;2024-03-08T06:34:40;44.63;;;28.50;;
13985;SDS011;7067;51.832;8.296;2024-03-08T06:37:06;49.00;;;28.87;;
13985;SDS011;7067;51.832;8.296;2024-03-08T06:39:31;42.93;;;30.67;;
13985;SDS011;7067;51.832;8.296;2024-03-08T06:41:57;42.17;;;29.90;;
13985;SDS011;7067;51.832;8.296;2024-03-08T06:44:22;42.73;;;28.87;;
13985;SDS011;7067;51.832;8.296;2024-03-08T06:46:48;43.30;;;28.87;;
13985;SDS011;7067;51.832;8.296;2024-03-08T06:49:13;47.70;;;30.47;;
13985;SDS011;7067;51.832;8.296;2024-03-08T06:51:40;44.87;;;30.07;;
13985;SDS011;7067;51.832;8.296;2024-03-08T06:54:06;43.40;;;30.23;;
13985;SDS011;7067;51.832;8.296;2024-03-08T06:56:33;43.10;;;29.97;;
13985;SDS011;7067;51.832;8.296;2024-03-08T06:59:02;48.88;;;29.25;;
13985;SDS011;7067;51.832;8.296;2024-03-08T07:01:28;42.20;;;29.73;;
13985;SDS011;7067;51.832;8.296;2024-03-08T07:03:57;42.17;;;29.00;;
13985;SDS011;7067;51.832;8.296;2024-03-08T07:06:27;39.23;;;28.63;;
13985;SDS011;7067;51.832;8.296;2024-03-08T07:08:53;44.87;;;29.40;;
13985;SDS011;7067;51.832;8.296;2024-03-08T07:11:19;45.57;;;29.00;;
13985;SDS011;7067;51.832;8.296;2024-03-08T07:13:45;40.13;;;29.17;;
13985;SDS011;7067;51.832;8.296;2024-03-08T07:16:10;43.03;;;29.83;;
13985;SDS011;7067;51.832;8.296;2024-03-08T07:18:36;43.17;;;30.93;;
13985;SDS011;7067;51.832;8.296;2024-03-08T07:21:04;40.77;;;29.07;;
13985;SDS011;7067;51.832;8.296;2024-03-08T07:23:30;37.90;;;29.07;;
13985;SDS011;7067;51.832;8.296;2024-03-08T07:26:30;47.60;;;30.63;;
13985;SDS011;7067;51.832;8.296;2024-03-08T07:28:56;40.50;;;28.80;;
13985;SDS011;7067;51.832;8.296;2024-03-08T07:31:23;40.60;;;28.43;;
13985;SDS011;7067;51.832;8.296;2024-03-08T07:33:51;42.00;;;29.07;;
13985;SDS011;7067;51.832;8.296;2024-03-08T07:36:18;40.70;;;28.90;;
13985;SDS011;7067;51.832;8.296;2024-03-08T07:38:48;41.80;;;30.37;;
13985;SDS011;7067;51.832;8.296;2024-03-08T07:41:15;40.87;;;29.83;;
13985;SDS011;7067;51.832;8.296;2024-03-08T07:43:41;40.80;;;29.93;;
13985;SDS011;7067;51.832;8.296;2024-03-08T07:46:06;46.90;;;33.03;;
13985;SDS011;7067;51.832;8.296;2024-03-08T07:48:35;43.53;;;31.50;;
13985;SDS011;7067;51.832;8.296;2024-03-08T07:51:01;44.93;;;32.30;;
13985;SDS011;7067;51.832;8.296;2024-03-08T07:53:27;47.67;;;32.37;;
13985;SDS011;7067;51.832;8.296;2024-03-08T07:55:53;43.17;;;30.47;;
13985;SDS011;7067;51.832;8.296;2024-03-08T07:58:18;45.93;;;30.73;;
13985;SDS011;7067;51.832;8.296;2024-03-08T08:00:43;41.47;;;29.20;;
13985;SDS011;7067;51.832;8.296;2024-03-08T08:03:09;42.57;;;29.37;;
13985;SDS011;7067;51.832;8.296;2024-03-08T08:05:34;43.57;;;30.83;;
13985;SDS011;7067;51.832;8.296;2024-03-08T08:08:03;42.80;;;30.40;;
13985;SDS011;7067;51.832;8.296;2024-03-08T08:10:31;40.67;;;29.73;;
13985;SDS011;7067;51.832;8.296;2024-03-08T08:12:57;41.70;;;30.63;;
13985;SDS011;7067;51.832;8.296;2024-03-08T08:15:23;47.40;;;31.33;;
13985;SDS011;7067;51.832;8.296;2024-03-08T08:17:48;47.63;;;33.07;;
13985;SDS011;7067;51.832;8.296;2024-03-08T08:20:14;45.10;;;31.30;;
13985;SDS011;7067;51.832;8.296;2024-03-08T08:22:40;45.23;;;32.67;;
13985;SDS011;7067;51.832;8.296;2024-03-08T08:25:06;47.63;;;31.93;;
13985;SDS011;7067;51.832;8.296;2024-03-08T08:27:32;49.27;;;34.83;;
13985;SDS011;7067;51.832;8.296;2024-03-08T08:29:58;44.65;;;33.65;;
13985;SDS011;7067;51.832;8.296;2024-03-08T08:32:23;45.93;;;31.70;;
13985;SDS011;7067;51.832;8.296;2024-03-08T08:34:48;44.20;;;32.33;;
13985;SDS011;7067;51.832;8.296;2024-03-08T08:37:14;41.80;;;30.67;;
13985;SDS011;7067;51.832;8.296;2024-03-08T08:39:40;43.00;;;29.53;;
13985;SDS011;7067;51.832;8.296;2024-03-08T08:42:05;41.73;;;30.50;;
13985;SDS011;7067;51.832;8.296;2024-03-08T08:44:34;35.97;;;28.30;;
13985;SDS011;7067;51.832;8.296;2024-03-08T08:47:00;37.53;;;28.80;;
13985;SDS011;7067;51.832;8.296;2024-03-08T08:49:25;37.73;;;28.60;;
13985;SDS011;7067;51.832;8.296;2024-03-08T08:51:51;41.80;;;32.30;;
13985;SDS011;7067;51.832;8.296;2024-03-08T08:54:17;40.47;;;30.00;;
13985;SDS011;7067;51.832;8.296;2024-03-08T08:56:42;38.83;;;28.97;;
13985;SDS011;7067;51.832;8.296;2024-03-08T08:59:12;36.80;;;29.15;;
13985;SDS011;7067;51.832;8.296;2024-03-08T09:01:39;39.67;;;29.20;;
13985;SDS011;7067;51.832;8.296;2024-03-08T09:04:05;42.43;;;29.73;;
13985;SDS011;7067;51.832;8.296;2024-03-08T09:06:31;36.55;;;29.13;;
13985;SDS011;7067;51.832;8.296;2024-03-08T09:08:56;38.80;;;30.35;;
13985;SDS011;7067;51.832;8.296;2024-03-08T09:11:22;35.90;;;28.35;;
13985;SDS011;7067;51.832;8.296;2024-03-08T09:13:50;39.03;;;28.83;;
13985;SDS011;7067;51.832;8.296;2024-03-08T09:16:15;39.45;;;29.15;;
13985;SDS011;7067;51.832;8.296;2024-03-08T09:18:42;35.83;;;28.35;;
13985;SDS011;7067;51.832;8.296;2024-03-08T09:21:07;35.53;;;28.17;;
13985;SDS011;7067;51.832;8.296;2024-03-08T09:23:35;40.45;;;28.85;;
13985;SDS011;7067;51.832;8.296;2024-03-08T09:26:01;36.83;;;28.48;;
13985;SDS011;7067;51.832;8.296;2024-03-08T09:28:28;36.33;;;28.25;;
13985;SDS011;7067;51.832;8.296;2024-03-08T09:30:53;35.72;;;27.65;;
13985;SDS011;7067;51.832;8.296;2024-03-08T09:33:19;36.80;;;29.70;;
13985;SDS011;7067;51.832;8.296;2024-03-08T09:35:45;42.00;;;30.17;;
13985;SDS011;7067;51.832;8.296;2024-03-08T09:38:14;37.97;;;30.73;;
13985;SDS011;7067;51.832;8.296;2024-03-08T09:40:43;37.03;;;29.65;;
13985;SDS011;7067;51.832;8.296;2024-03-08T09:43:11;36.75;;;27.63;;
13985;SDS011;7067;51.832;8.296;2024-03-08T09:45:37;37.38;;;28.98;;
13985;SDS011;7067;51.832;8.296;2024-03-08T09:48:08;34.55;;;26.98;;
13985;SDS011;7067;51.832;8.296;2024-03-08T09:50:37;32.05;;;26.92;;
13985;SDS011;7067;51.832;8.296;2024-03-08T09:53:03;39.15;;;31.25;;
13985;SDS011;7067;51.832;8.296;2024-03-08T09:55:28;32.03;;;26.88;;
13985;SDS011;7067;51.832;8.296;2024-03-08T09:57:58;35.38;;;26.58;;
13985;SDS011;7067;51.832;8.296;2024-03-08T10:00:46;31.38;;;25.40;;
13985;SDS011;7067;51.832;8.296;2024-03-08T10:03:12;32.40;;;26.38;;
13985;SDS011;7067;51.832;8.296;2024-03-08T10:05:39;29.73;;;25.25;;
13985;SDS011;7067;51.832;8.296;2024-03-08T10:08:05;34.25;;;27.58;;
13985;SDS011;7067;51.832;8.296;2024-03-08T10:10:33;34.30;;;25.20;;
13985;SDS011;7067;51.832;8.296;2024-03-08T10:12:59;32.97;;;26.17;;
13985;SDS011;7067;51.832;8.296;2024-03-08T10:15:26;33.65;;;26.33;;
13985;SDS011;7067;51.832;8.296;2024-03-08T10:17:55;33.67;;;27.85;;
13985;SDS011;7067;51.832;8.296;2024-03-08T10:20:21;31.48;;;25.58;;
13985;SDS011;7067;51.832;8.296;2024-03-08T10:22:46;28.40;;;24.05;;
13985;SDS011;7067;51.832;8.296;2024-03-08T10:25:11;30.02;;;23.75;;
13985;SDS011;7067;51.832;8.296;2024-03-08T10:27:40;29.08;;;23.70;;
13985;SDS011;7067;51.832;8.296;2024-03-08T10:30:06;31.80;;;24.85;;
13985;SDS011;7067;51.832;8.296;2024-03-08T10:32:35;30.40;;;24.52;;
13985;SDS011;7067;51.832;8.296;2024-03-08T10:35:00;28.92;;;23.08;;
13985;SDS011;7067;51.832;8.296;2024-03-08T10:37:26;29.88;;;25.45;;
13985;SDS011;7067;51.832;8.296;2024-03-08T10:40:02;30.75;;;24.10;;
13985;SDS011;7067;51.832;8.296;2024-03-08T10:42:41;28.05;;;22.73;;
13985;SDS011;7067;51.832;8.296;2024-03-08T10:50:56;30.27;;;23.42;;
13985;SDS011;7067;51.832;8.296;2024-03-08T10:53:22;29.92;;;25.15;;
13985;SDS011;7067;51.832;8.296;2024-03-08T10:55:49;30.10;;;24.15;;
13985;SDS011;7067;51.832;8.296;2024-03-08T10:58:18;27.60;;;23.05;;
13985;SDS011;7067;51.832;8.296;2024-03-08T11:00:45;26.23;;;22.63;;
13985;SDS011;7067;51.832;8.296;2024-03-08T11:03:43;29.42;;;24.20;;
13985;SDS011;7067;51.832;8.296;2024-03-08T11:06:19;27.10;;;22.52;;
13985;SDS011;7067;51.832;8.296;2024-03-08T11:08:48;28.63;;;22.55;;
13985;SDS011;7067;51.832;8.296;2024-03-08T11:13:57;27.92;;;23.25;;
13985;SDS011;7067;51.832;8.296;2024-03-08T11:18:53;24.40;;;20.10;;
13985;SDS011;7067;51.832;8.296;2024-03-08T11:21:19;22.48;;;19.88;;
13985;SDS011;7067;51.832;8.296;2024-03-08T11:23:58;22.35;;;19.27;;
13985;SDS011;7067;51.832;8.296;2024-03-08T11:26:28;22.95;;;19.42;;
13985;SDS011;7067;51.832;8.296;2024-03-08T11:29:11;23.17;;;19.33;;
13985;SDS011;7067;51.832;8.296;2024-03-08T11:32:15;25.35;;;21.38;;
13985;SDS011;7067;51.832;8.296;2024-03-08T11:34:45;21.75;;;19.10;;
13985;SDS011;7067;51.832;8.296;2024-03-08T11:37:16;25.88;;;19.27;;
13985;SDS011;7067;51.832;8.296;2024-03-08T11:39:50;24.08;;;19.83;;
13985;SDS011;7067;51.832;8.296;2024-03-08T11:42:23;24.65;;;20.25;;
13985;SDS011;7067;51.832;8.296;2024-03-08T11:44:51;24.65;;;21.05;;
13985;SDS011;7067;51.832;8.296;2024-03-08T11:47:17;27.23;;;20.60;;
13985;SDS011;7067;51.832;8.296;2024-03-08T11:49:43;25.30;;;20.52;;
13985;SDS011;7067;51.832;8.296;2024-03-08T11:54:39;23.98;;;21.23;;
13985;SDS011;7067;51.832;8.296;2024-03-08T11:57:05;21.13;;;18.88;;
13985;SDS011;7067;51.832;8.296;2024-03-08T11:59:30;22.08;;;19.67;;
13985;SDS011;7067;51.832;8.296;2024-03-08T12:02:03;26.23;;;20.60;;
13985;SDS011;7067;51.832;8.296;2024-03-08T12:04:29;21.85;;;19.50;;
13985;SDS011;7067;51.832;8.296;2024-03-08T12:06:56;21.92;;;19.02;;
13985;SDS011;7067;51.832;8.296;2024-03-08T12:09:22;22.65;;;19.33;;
13985;SDS011;7067;51.832;8.296;2024-03-08T12:11:47;24.83;;;19.83;;
13985;SDS011;7067;51.832;8.296;2024-03-08T12:14:14;21.10;;;18.88;;
13985;SDS011;7067;51.832;8.296;2024-03-08T12:16:39;25.52;;;19.35;;
13985;SDS011;7067;51.832;8.296;2024-03-08T12:19:05;24.27;;;20.95;;
13985;SDS011;7067;51.832;8.296;2024-03-08T12:21:31;25.30;;;21.55;;
13985;SDS011;7067;51.832;8.296;2024-03-08T12:24:07;26.02;;;21.55;;
13985;SDS011;7067;51.832;8.296;2024-03-08T12:26:34;26.77;;;20.88;;
13985;SDS011;7067;51.832;8.296;2024-03-08T12:31:43;27.58;;;21.15;;
13985;SDS011;7067;51.832;8.296;2024-03-08T12:34:08;22.15;;;19.52;;
13985;SDS011;7067;51.832;8.296;2024-03-08T12:36:35;24.17;;;20.23;;
13985;SDS011;7067;51.832;8.296;2024-03-08T12:39:01;21.25;;;18.80;;
13985;SDS011;7067;51.832;8.296;2024-03-08T12:41:28;21.95;;;19.35;;
13985;SDS011;7067;51.832;8.296;2024-03-08T12:43:54;22.63;;;19.90;;
13985;SDS011;7067;51.832;8.296;2024-03-08T12:46:21;23.48;;;19.13;;
13985;SDS011;7067;51.832;8.296;2024-03-08T12:48:47;22.83;;;18.73;;
13985;SDS011;7067;51.832;8.296;2024-03-08T12:51:13;20.52;;;18.35;;
13985;SDS011;7067;51.832;8.296;2024-03-08T12:53:39;21.23;;;18.98;;
13985;SDS011;7067;51.832;8.296;2024-03-08T12:56:06;24.25;;;20.90;;
13985;SDS011;7067;51.832;8.296;2024-03-08T12:58:33;21.45;;;19.05;;
13985;SDS011;7067;51.832;8.296;2024-03-08T13:01:01;21.88;;;19.48;;
13985;SDS011;7067;51.832;8.296;2024-03-08T13:03:29;23.00;;;19.90;;
13985;SDS011;7067;51.832;8.296;2024-03-08T13:05:55;23.73;;;21.23;;
13985;SDS011;7067;51.832;8.296;2024-03-08T13:08:22;25.33;;;21.55;;
13985;SDS011;7067;51.832;8.296;2024-03-08T13:10:49;24.85;;;21.15;;
13985;SDS011;7067;51.832;8.296;2024-03-08T13:13:16;28.73;;;22.80;;
13985;SDS011;7067;51.832;8.296;2024-03-08T13:15:42;24.40;;;21.52;;
13985;SDS011;7067;51.832;8.296;2024-03-08T13:18:07;26.75;;;22.67;;
13985;SDS011;7067;51.832;8.296;2024-03-08T13:20:34;25.17;;;20.92;;
13985;SDS011;7067;51.832;8.296;2024-03-08T13:23:02;24.83;;;21.45;;
13985;SDS011;7067;51.832;8.296;2024-03-08T13:25:30;24.95;;;20.08;;
13985;SDS011;7067;51.832;8.296;2024-03-08T13:27:55;23.88;;;20.20;;
13985;SDS011;7067;51.832;8.296;2024-03-08T13:30:24;26.77;;;21.58;;
13985;SDS011;7067;51.832;8.296;2024-03-08T13:32:52;28.38;;;22.88;;
13985;SDS011;7067;51.832;8.296;2024-03-08T13:35:19;23.90;;;20.30;;
13985;SDS011;7067;51.832;8.296;2024-03-08T13:37:49;27.10;;;21.13;;
13985;SDS011;7067;51.832;8.296;2024-03-08T13:40:15;27.17;;;21.20;;
13985;SDS011;7067;51.832;8.296;2024-03-08T13:42:43;28.45;;;22.23;;
13985;SDS011;7067;51.832;8.296;2024-03-08T13:45:09;28.27;;;22.23;;
13985;SDS011;7067;51.832;8.296;2024-03-08T13:47:39;23.33;;;20.65;;
13985;SDS011;7067;51.832;8.296;2024-03-08T13:50:06;26.58;;;21.63;;
13985;SDS011;7067;51.832;8.296;2024-03-08T13:52:33;29.35;;;23.30;;
13985;SDS011;7067;51.832;8.296;2024-03-08T13:54:59;27.15;;;21.63;;
13985;SDS011;7067;51.832;8.296;2024-03-08T13:57:25;25.33;;;21.45;;
13985;SDS011;7067;51.832;8.296;2024-03-08T13:59:52;25.80;;;21.05;;
13985;SDS011;7067;51.832;8.296;2024-03-08T14:02:17;24.27;;;20.58;;
13985;SDS011;7067;51.832;8.296;2024-03-08T14:04:43;23.17;;;19.48;;
13985;SDS011;7067;51.832;8.296;2024-03-08T14:07:09;29.40;;;22.02;;
13985;SDS011;7067;51.832;8.296;2024-03-08T14:09:36;24.85;;;19.83;;
13985;SDS011;7067;51.832;8.296;2024-03-08T14:12:05;23.80;;;20.33;;
13985;SDS011;7067;51.832;8.296;2024-03-08T14:14:32;26.48;;;20.75;;
13985;SDS011;7067;51.832;8.296;2024-03-08T14:17:00;24.67;;;20.98;;
13985;SDS011;7067;51.832;8.296;2024-03-08T14:19:26;23.45;;;19.90;;
13985;SDS011;7067;51.832;8.296;2024-03-08T14:21:58;27.00;;;21.65;;
13985;SDS011;7067;51.832;8.296;2024-03-08T14:24:24;23.40;;;20.60;;
13985;SDS011;7067;51.832;8.296;2024-03-08T14:26:50;25.77;;;20.40;;
13985;SDS011;7067;51.832;8.296;2024-03-08T14:29:16;25.15;;;20.92;;
13985;SDS011;7067;51.832;8.296;2024-03-08T14:31:43;23.30;;;20.38;;
13985;SDS011;7067;51.832;8.296;2024-03-08T14:34:08;24.75;;;20.05;;
13985;SDS011;7067;51.832;8.296;2024-03-08T14:36:34;24.85;;;20.17;;
13985;SDS011;7067;51.832;8.296;2024-03-08T14:38:59;23.02;;;19.52;;
13985;SDS011;7067;51.832;8.296;2024-03-08T14:41:25;26.90;;;19.67;;
13985;SDS011;7067;51.832;8.296;2024-03-08T14:43:51;25.75;;;19.75;;
13985;SDS011;7067;51.832;8.296;2024-03-08T14:48:48;23.35;;;18.70;;
13985;SDS011;7067;51.832;8.296;2024-03-08T14:51:13;22.90;;;18.85;;
13985;SDS011;7067;51.832;8.296;2024-03-08T14:53:42;25.85;;;19.10;;